Weather reports worldwide

Advertisment
Navacerrada, Spain (8215): temperature & dewpoint: 12.10.2018 03:00:00 - 18.10.2018 03:00:00 (CEST)Navacerrada, Spain (8215): wind speed & gusts: 12.10.2018 03:00:00 - 18.10.2018 03:00:00 (CEST)Navacerrada, Spain (8215): wind direction: 12.10.2018 03:00:00 - 18.10.2018 03:00:00 (CEST)Navacerrada, Spain (8215): visibility: 12.10.2018 03:00:00 - 18.10.2018 03:00:00 (CEST)Navacerrada, Spain (8215): precipitation: 12.10.2018 03:00:00 - 18.10.2018 03:00:00 (CEST)
Date & Time tt [°C] td [°C] ff [km/h] ff [kn] fx [km/h] fx [kn] dd vv [km] rr [mm]
18.10.2018 03:00:00 6,9 5,4 15 8 - - SE 20 0,0
18.10.2018 02:00:00 6,6 4,3 16 9 - - SE 20 -
18.10.2018 01:00:00 6,2 3,9 9 5 - - S 20 0,0
18.10.2018 00:00:00 6,0 5,6 8 4 - - ENE 18 0,0
17.10.2018 23:00:00 6,5 5,8 8 4 - - NNE 20 -
17.10.2018 22:00:00 7,0 5,3 13 7 - - SSE 20 0,0
17.10.2018 21:00:00 7,3 6,7 16 9 - - S 19 0,0
17.10.2018 20:00:00 7,5 6,8 21 11 - - S 12 -
17.10.2018 19:00:00 8,4 6,2 24 13 - - S 20 0,0
17.10.2018 18:00:00 9,8 5,4 21 11 - - S 20 0,0
17.10.2018 17:00:00 11,4 6,3 21 11 - - SSW 30 -
17.10.2018 16:00:00 12,4 7,1 15 8 - - SSW 19 0,0
17.10.2018 15:00:00 11,7 6,6 13 7 - - S 20 0,0
17.10.2018 14:00:00 12,9 7,3 15 8 - - S 30 -
17.10.2018 13:00:00 13,9 8,7 11 6 - - S 20 0,0
17.10.2018 12:00:00 12,1 7,6 9 5 - - S 20 0,0
17.10.2018 11:00:00 10,8 7,3 9 5 - - SSE 20 -
17.10.2018 10:00:00 8,2 6,2 4 2 - - S 20 0,0
17.10.2018 09:00:00 6,6 4,8 4 2 - - WSW 20 0,0
17.10.2018 08:00:00 6,4 4,7 4 2 - - NW 20 -
17.10.2018 07:00:00 6,1 5,1 11 6 - - S 20 0,0
17.10.2018 06:00:00 6,0 5,3 8 4 - - S 15 0,0
17.10.2018 05:00:00 5,9 5,3 5 3 - - W 16 -
17.10.2018 04:00:00 5,9 5,5 9 5 - - S 16 0,0
17.10.2018 03:00:00 6,0 5,7 4 2 - - SSW 9 0,0
17.10.2018 02:00:00 6,6 5,4 5 3 - - W 20 -
17.10.2018 01:00:00 6,5 5,9 5 3 - - SE 20 0,0
17.10.2018 00:00:00 6,6 6,6 5 3 - - E 0,1 0,0
16.10.2018 23:00:00 6,8 6,8 4 2 - - NW - -
16.10.2018 22:00:00 6,8 6,8 8 4 - - N 0,1 0,0
16.10.2018 21:00:00 7,2 7,2 8 4 - - N 0,1 0,0
16.10.2018 20:00:00 7,5 7,2 8 4 - - N 0,8 -
16.10.2018 19:00:00 8,7 7,8 4 2 - - NW 4,2 0,0
16.10.2018 18:00:00 9,6 8,0 5 3 - - WNW 12 0,0
16.10.2018 17:00:00 8,1 7,7 4 2 - - ENE 0,8 -
16.10.2018 16:00:00 7,7 7,3 4 2 - - NNW 0,4 0,0
16.10.2018 15:00:00 9,3 8,1 4 2 - - NE 15 0,0
16.10.2018 14:00:00 9,0 8,2 4 2 - - E 10 -
16.10.2018 13:00:00 9,4 7,7 4 2 - - W 11 0,0
16.10.2018 12:00:00 10,4 8,3 8 4 - - E 20 0,0
16.10.2018 11:00:00 9,3 7,9 9 5 - - E 30 -
16.10.2018 10:00:00 6,2 6,2 5 3 - - ENE 20 0,0
16.10.2018 09:00:00 3,6 3,6 4 2 - - ENE 20 0,0
16.10.2018 08:00:00 3,5 3,5 2 1 - - ESE 15 -
16.10.2018 07:00:00 3,8 3,8 11 6 - - NE 20 0,0
16.10.2018 06:00:00 3,9 3,9 4 2 - - NNW 20 0,0
16.10.2018 05:00:00 3,3 3,3 9 5 - - E 4,1 -
16.10.2018 04:00:00 3,6 3,6 4 2 - - WNW 0,4 0,0
16.10.2018 03:00:00 3,7 3,7 4 2 - - NNW 19 0,0
16.10.2018 02:00:00 3,9 3,9 4 2 - - W 20 -
16.10.2018 01:00:00 4,0 4,0 5 3 - - S 20 0,0
16.10.2018 00:00:00 3,7 3,7 15 8 - - S 8 0,0
15.10.2018 23:00:00 4,3 4,3 5 3 - - S 0,2 -
15.10.2018 22:00:00 4,2 4,2 21 11 - - S 0,4 0,0
15.10.2018 21:00:00 4,3 4,3 21 11 - - S 0,3 0,0
15.10.2018 20:00:00 4,3 4,3 11 6 - - S 0,1 -
15.10.2018 19:00:00 4,7 4,7 16 9 - - S 0,1 0,2
15.10.2018 18:00:00 5,2 5,2 22 12 - - S 4,5 0,8
15.10.2018 17:00:00 5,8 5,7 11 6 - - S 0,2 -
15.10.2018 16:00:00 6,3 5,6 18 10 - - S 14 0,0
15.10.2018 15:00:00 6,2 5,3 16 9 - - S 16 0,0
15.10.2018 14:00:00 8,0 6,8 4 2 - - SSW 20 -
15.10.2018 13:00:00 6,5 6,5 8 4 - - W 19 0,0
15.10.2018 12:00:00 4,4 4,4 9 5 - - S 20 0,0
15.10.2018 11:00:00 5,3 5,3 4 2 - - W 0,8 -
15.10.2018 10:00:00 2,8 2,8 5 3 - - WNW 20 0,0
15.10.2018 09:00:00 -0,4 -0,4 15 8 - - NNE 20 0,0
15.10.2018 08:00:00 0,5 0,5 15 8 - - N 0,2 -
15.10.2018 07:00:00 0,9 0,9 13 7 - - N 0,1 0,0
15.10.2018 06:00:00 1,1 1,1 16 9 - - NNW - 0,0
15.10.2018 05:00:00 1,3 1,3 18 10 - - NNW - -
15.10.2018 04:00:00 1,6 1,6 16 9 - - NNW - 0,0
15.10.2018 03:00:00 2,1 2,1 15 8 - - NNW - 0,6
15.10.2018 02:00:00 2,5 2,5 16 9 - - NNW 0,1 -
15.10.2018 01:00:00 2,3 2,3 18 10 - - NNW 0,1 1,0
15.10.2018 00:00:00 2,1 2,1 21 11 - - NNW 0,1 0,6
14.10.2018 23:00:00 2,2 2,2 16 9 - - NNW - -
14.10.2018 22:00:00 2,2 2,2 21 11 - - N - 0,2
14.10.2018 21:00:00 2,1 2,1 18 10 - - N - 0,2
14.10.2018 20:00:00 1,8 1,8 21 11 - - NNW 0,1 -
14.10.2018 19:00:00 2,1 2,1 13 7 - - N 0,1 0,8
14.10.2018 18:00:00 2,2 2,2 16 9 - - NNW - 0,4
14.10.2018 17:00:00 2,3 2,3 16 9 - - NNW 0,1 -
14.10.2018 16:00:00 2,4 2,4 18 10 - - NNW 0,1 0,6
14.10.2018 15:00:00 2,4 2,4 15 8 - - N 0,1 0,2
14.10.2018 14:00:00 2,9 2,9 13 7 - - N 0,2 -
14.10.2018 13:00:00 2,8 2,8 15 8 - - N 0,1 0,4
14.10.2018 12:00:00 3,9 3,9 15 8 - - N 0,1 0,2
14.10.2018 11:00:00 5,1 5,1 9 5 - - NNW 0,2 -
14.10.2018 10:00:00 5,0 5,0 9 5 - - N 0,2 7,0
14.10.2018 09:00:00 6,6 6,6 16 9 - - S 0,2 3,0
14.10.2018 08:00:00 6,6 6,6 22 12 - - SSE 0,8 -
14.10.2018 07:00:00 6,1 6,1 18 10 76 41 SE 15 3,0
14.10.2018 06:00:00 8,2 7,9 22 12 - - SSW 1,0 2,0
14.10.2018 05:00:00 9,1 8,0 16 9 - - SSW 15 -
14.10.2018 04:00:00 9,7 7,8 11 6 - - SSW 19 0,0
14.10.2018 03:00:00 10,1 7,9 21 11 - - S 20 0,0
14.10.2018 02:00:00 10,6 7,8 29 16 - - SSE 20 -
14.10.2018 01:00:00 10,8 8,4 39 21 - - SSE 20 0,0
14.10.2018 00:00:00 11,9 9,3 41 22 - - S 20 0,0
13.10.2018 23:00:00 12,0 9,2 39 21 - - SSE 20 -
13.10.2018 22:00:00 11,9 9,3 37 20 - - SSE 20 0,0
13.10.2018 21:00:00 11,4 9,6 28 15 - - SSE 19 0,0
13.10.2018 20:00:00 11,0 8,9 21 11 - - SE 20 -
13.10.2018 19:00:00 11,4 9,3 15 8 - - SSE 20 0,0
13.10.2018 18:00:00 13,0 9,3 22 12 - - S 8 0,0
13.10.2018 17:00:00 13,8 10,6 21 11 - - S 19 -
13.10.2018 16:00:00 14,1 11,4 24 13 - - S 19 0,0
13.10.2018 15:00:00 13,6 11,6 18 10 - - SSE 19 0,0
13.10.2018 14:00:00 13,9 11,9 22 12 - - SSE 15 -
13.10.2018 13:00:00 14,2 12,2 18 10 - - S 19 0,0
13.10.2018 12:00:00 12,1 11,5 16 9 - - SSE 17 0,0
13.10.2018 11:00:00 10,9 10,9 13 7 - - S 10 -
13.10.2018 10:00:00 9,7 9,7 31 17 - - S 2,4 0,0
13.10.2018 09:00:00 9,5 9,5 26 14 - - S 3,1 0,0
13.10.2018 08:00:00 9,4 9,4 29 16 - - S 0,2 -
13.10.2018 07:00:00 9,7 9,7 29 16 - - S 0,1 0,0
13.10.2018 06:00:00 9,3 9,3 29 16 - - SSW 0,3 0,0
13.10.2018 05:00:00 9,2 9,2 35 19 - - SSW 7 -
13.10.2018 04:00:00 9,0 9,0 34 18 - - S 3,7 0,0
13.10.2018 03:00:00 9,0 9,0 31 17 - - S 9 0,0
13.10.2018 02:00:00 9,3 9,3 29 16 - - S 3,4 -
13.10.2018 01:00:00 10,1 10,1 26 14 - - SSW 0,1 0,0
13.10.2018 00:00:00 10,2 10,2 22 12 - - SSW - 0,0
12.10.2018 23:00:00 9,2 9,2 22 12 - - S 17 -
12.10.2018 22:00:00 9,1 8,8 16 9 - - S 20 0,0
12.10.2018 21:00:00 9,7 8,8 21 11 - - SSW 20 0,0
12.10.2018 20:00:00 9,7 9,7 15 8 - - SSW 9 -
12.10.2018 19:00:00 10,3 10,3 13 7 - - S 11 0,0
12.10.2018 18:00:00 10,4 10,4 13 7 - - S 10 0,0
12.10.2018 17:00:00 10,7 10,7 18 10 - - SSW 0,9 -
12.10.2018 16:00:00 10,9 10,9 18 10 - - SSW 13 0,0
12.10.2018 15:00:00 10,4 10,4 26 14 - - SSW 1,2 0,0
12.10.2018 14:00:00 10,1 10,1 24 13 - - S - -
12.10.2018 13:00:00 9,8 9,8 16 9 - - SSW 0,1 0,0
12.10.2018 12:00:00 9,5 9,5 26 14 - - SSW 7 0,0
12.10.2018 11:00:00 9,6 9,6 18 10 - - S 0,9 -
12.10.2018 10:00:00 8,4 8,4 34 18 - - S 16 0,2
12.10.2018 09:00:00 8,6 8,6 29 16 - - SSW 0,2 0,0
12.10.2018 08:00:00 8,0 8,0 31 17 - - SSW 11 -
12.10.2018 07:00:00 8,0 8,0 41 22 - - SSW 14 0,0
12.10.2018 06:00:00 8,0 8,0 37 20 - - SSW 6 0,0
12.10.2018 05:00:00 9,3 9,3 35 19 - - SW 0,1 -
12.10.2018 04:00:00 10,0 10,0 31 17 - - SSW 0,1 0,4
12.10.2018 03:00:00 10,0 10,0 28 15 - - SSW 0,1 0,4

tt = temperature
td = dewpoint
ff = wind speed
fx = gusts
dd = wind direction
vv = visibility
rr = precipitation

Next stations